createdAt,value
2022-12-09T00:00:51.598Z,-0.20
2022-12-09T00:03:23.398Z,-0.10
2022-12-09T00:05:50.935Z,-0.10
2022-12-09T00:08:17.854Z,-0.20
2022-12-09T00:10:45.692Z,-0.10
2022-12-09T00:13:12.759Z,-0.10
2022-12-09T00:15:43.316Z,-0.10
2022-12-09T00:18:10.331Z,-0.10
2022-12-09T00:20:37.192Z,-0.10
2022-12-09T00:23:04.429Z,-0.10
2022-12-09T00:25:31.390Z,-0.10
2022-12-09T00:27:58.265Z,-0.10
2022-12-09T00:30:25.128Z,-0.10
2022-12-09T00:32:52.197Z,-0.10
2022-12-09T00:35:19.029Z,-0.10
2022-12-09T00:37:46.058Z,0.00
2022-12-09T00:40:13.446Z,0.00
2022-12-09T00:42:40.375Z,0.00
2022-12-09T00:45:08.500Z,0.00
2022-12-09T00:47:35.835Z,0.00
2022-12-09T00:50:03.618Z,-0.10
2022-12-09T00:52:30.558Z,-0.10
2022-12-09T00:54:57.613Z,-0.10
2022-12-09T00:57:24.742Z,-0.20
2022-12-09T00:59:51.777Z,-0.20
2022-12-09T01:02:18.931Z,-0.30
2022-12-09T01:04:46.118Z,-0.30
2022-12-09T01:07:12.999Z,-0.30
2022-12-09T01:09:39.761Z,-0.30
2022-12-09T01:12:06.713Z,-0.30
2022-12-09T01:14:33.564Z,-0.30
2022-12-09T01:17:00.630Z,-0.30
2022-12-09T01:19:27.555Z,-0.30
2022-12-09T01:21:55.548Z,-0.30
2022-12-09T01:24:22.981Z,-0.30
2022-12-09T01:26:50.165Z,-0.30
2022-12-09T01:29:17.499Z,-0.40
2022-12-09T01:31:44.572Z,-0.40
2022-12-09T01:34:11.424Z,-0.30
2022-12-09T01:36:39.010Z,-0.40
2022-12-09T01:39:06.299Z,-0.40
2022-12-09T01:41:34.424Z,-0.40
2022-12-09T01:44:08.089Z,-0.40
2022-12-09T01:46:34.962Z,-0.30
2022-12-09T01:49:02.074Z,-0.40
2022-12-09T01:51:30.451Z,-0.40
2022-12-09T01:53:58.193Z,-0.40
2022-12-09T01:56:29.739Z,-0.30
2022-12-09T02:03:21.135Z,-0.40
2022-12-09T02:05:48.743Z,-0.40
2022-12-09T02:08:17.509Z,-0.40
2022-12-09T02:11:07.242Z,-0.40
2022-12-09T02:14:00.992Z,-0.40
2022-12-09T02:16:31.550Z,-0.40
2022-12-09T02:19:12.033Z,-0.50
2022-12-09T02:21:46.729Z,-0.50
2022-12-09T02:24:16.977Z,-0.40
2022-12-09T02:27:11.356Z,-0.40
2022-12-09T02:30:09.005Z,-0.40
2022-12-09T02:32:39.474Z,-0.40
2022-12-09T02:35:29.670Z,-0.40
2022-12-09T02:37:59.124Z,-0.40
2022-12-09T02:40:33.066Z,-0.50
2022-12-09T02:43:01.832Z,-0.50
2022-12-09T02:45:31.101Z,-0.50
2022-12-09T02:48:01.266Z,-0.50
2022-12-09T02:50:33.340Z,-0.60
2022-12-09T02:53:04.402Z,-0.60
2022-12-09T02:55:32.726Z,-0.60
2022-12-09T02:58:01.373Z,-0.50
2022-12-09T03:00:29.460Z,-0.60
2022-12-09T03:03:00.420Z,-0.50
2022-12-09T03:05:36.199Z,-0.50
2022-12-09T03:08:41.700Z,-0.50
2022-12-09T03:11:15.939Z,-0.60
2022-12-09T03:14:11.050Z,-0.60
2022-12-09T03:16:41.720Z,-0.60
2022-12-09T03:19:29.151Z,-0.70
2022-12-09T03:22:03.403Z,-0.60
2022-12-09T03:24:44.332Z,-0.60
2022-12-09T03:27:17.519Z,-0.60
2022-12-09T03:29:47.628Z,-0.60
2022-12-09T03:32:16.423Z,-0.60
2022-12-09T03:34:46.813Z,-0.60
2022-12-09T03:37:17.607Z,-0.60
2022-12-09T03:39:45.807Z,-0.60
2022-12-09T03:42:24.562Z,-0.70
2022-12-09T03:44:58.469Z,-0.70
2022-12-09T03:47:25.753Z,-0.70
2022-12-09T03:49:52.953Z,-0.70
2022-12-09T03:52:27.210Z,-0.90
2022-12-09T03:55:03.209Z,-1.00
2022-12-09T03:57:30.377Z,-1.00
2022-12-09T04:00:00.752Z,-1.00
2022-12-09T04:02:29.349Z,-1.10
2022-12-09T04:04:56.903Z,-1.10
2022-12-09T04:07:24.292Z,-1.10
2022-12-09T04:09:51.340Z,-1.00
2022-12-09T04:12:18.299Z,-1.00
2022-12-09T04:14:45.172Z,-1.00
2022-12-09T04:17:12.342Z,-1.00
2022-12-09T04:19:39.553Z,-1.10
2022-12-09T04:22:06.406Z,-1.00
2022-12-09T04:24:33.201Z,-1.00
2022-12-09T04:27:00.125Z,-1.00
2022-12-09T04:29:27.053Z,-1.00
2022-12-09T04:31:53.961Z,-1.00
2022-12-09T04:34:21.389Z,-1.10
2022-12-09T04:36:49.414Z,-1.00
2022-12-09T04:39:16.434Z,-1.00
2022-12-09T04:41:43.594Z,-1.00
2022-12-09T04:44:10.722Z,-1.00
2022-12-09T04:46:37.644Z,-1.10
2022-12-09T04:49:04.725Z,-1.00
2022-12-09T04:51:39.053Z,-0.90
2022-12-09T04:54:06.953Z,-0.90
2022-12-09T04:56:33.937Z,-1.00
2022-12-09T04:59:01.132Z,-1.00
2022-12-09T05:01:31.183Z,-1.00
2022-12-09T05:03:59.622Z,-1.00
2022-12-09T05:06:27.601Z,-0.90
2022-12-09T05:08:54.956Z,-0.90
2022-12-09T05:11:24.439Z,-0.90
2022-12-09T05:13:55.466Z,-1.00
2022-12-09T05:16:23.257Z,-1.10
2022-12-09T05:18:50.675Z,-1.10
2022-12-09T05:21:20.123Z,-1.10
2022-12-09T05:23:47.926Z,-1.10
2022-12-09T05:26:20.613Z,-1.10
2022-12-09T05:28:48.100Z,-1.20
2022-12-09T05:31:18.125Z,-1.20
2022-12-09T05:33:46.800Z,-1.30
2022-12-09T05:36:15.789Z,-1.20
2022-12-09T05:38:43.083Z,-1.20
2022-12-09T05:41:10.412Z,-1.20
2022-12-09T05:43:37.861Z,-1.20
2022-12-09T05:46:06.764Z,-1.20
2022-12-09T05:48:34.527Z,-1.30
2022-12-09T05:51:04.897Z,-1.30
2022-12-09T05:53:32.967Z,-1.30
2022-12-09T05:56:00.122Z,-1.20
2022-12-09T05:58:27.612Z,-1.20
2022-12-09T06:00:58.031Z,-1.20
2022-12-09T06:03:25.345Z,-1.20
2022-12-09T06:05:52.782Z,-1.20
2022-12-09T06:08:20.525Z,-1.20
2022-12-09T06:10:48.090Z,-1.20
2022-12-09T06:13:15.333Z,-1.30
2022-12-09T06:15:42.423Z,-1.30
2022-12-09T06:18:09.806Z,-1.40
2022-12-09T06:20:41.113Z,-1.40
2022-12-09T06:23:09.232Z,-1.40
2022-12-09T06:25:36.428Z,-1.30
2022-12-09T06:28:04.218Z,-1.30
2022-12-09T06:30:31.839Z,-1.20
2022-12-09T06:32:59.832Z,-1.20
2022-12-09T06:35:26.907Z,-1.20
2022-12-09T06:37:54.167Z,-1.20
2022-12-09T06:40:24.410Z,-1.20
2022-12-09T06:42:51.941Z,-1.30
2022-12-09T06:45:20.060Z,-1.30
2022-12-09T06:47:47.699Z,-1.30
2022-12-09T06:50:15.425Z,-1.40
2022-12-09T06:52:42.909Z,-1.40
2022-12-09T06:55:11.097Z,-1.50
2022-12-09T06:57:38.258Z,-1.50
2022-12-09T07:00:06.501Z,-1.50
2022-12-09T07:02:36.812Z,-1.50
2022-12-09T07:05:05.458Z,-1.50
2022-12-09T07:07:33.084Z,-1.50
2022-12-09T07:10:03.981Z,-1.50
2022-12-09T07:12:31.055Z,-1.40
2022-12-09T07:14:58.235Z,-1.40
2022-12-09T07:17:25.586Z,-1.30
2022-12-09T07:19:52.784Z,-1.30
2022-12-09T07:22:20.351Z,-1.30
2022-12-09T07:24:47.510Z,-1.40
2022-12-09T07:27:19.377Z,-1.40
2022-12-09T07:29:47.256Z,-1.30
2022-12-09T07:32:14.909Z,-1.30
2022-12-09T07:34:42.523Z,-1.20
2022-12-09T07:37:10.283Z,-1.30
2022-12-09T07:39:37.579Z,-1.20
2022-12-09T07:42:05.202Z,-1.20
2022-12-09T07:44:32.462Z,-1.20
2022-12-09T07:46:59.516Z,-1.20
2022-12-09T07:49:26.743Z,-1.30
2022-12-09T07:51:53.712Z,-1.20
2022-12-09T07:54:21.344Z,-1.20
2022-12-09T07:56:48.778Z,-1.20
2022-12-09T07:59:16.980Z,-1.20
2022-12-09T08:01:44.754Z,-1.20
2022-12-09T08:04:12.318Z,-1.20
2022-12-09T08:06:40.408Z,-1.30
2022-12-09T08:09:11.303Z,-1.30
2022-12-09T08:11:40.083Z,-1.20
2022-12-09T08:14:12.241Z,-1.20
2022-12-09T08:16:42.087Z,-1.20
2022-12-09T08:19:10.346Z,-1.20
2022-12-09T08:21:37.728Z,-1.20
2022-12-09T08:24:06.098Z,-1.10
2022-12-09T08:26:34.334Z,-1.00
2022-12-09T08:29:02.627Z,-0.90
2022-12-09T08:31:30.874Z,-0.90
2022-12-09T08:33:59.385Z,-0.80
2022-12-09T08:36:28.509Z,-0.80
2022-12-09T08:38:58.250Z,-0.80
2022-12-09T08:41:37.547Z,-0.80
2022-12-09T08:44:13.803Z,-0.70
2022-12-09T08:46:42.939Z,-0.70
2022-12-09T08:49:11.027Z,-0.70
2022-12-09T08:51:38.905Z,-0.70
2022-12-09T08:54:06.270Z,-0.70
2022-12-09T08:56:34.425Z,-0.70
2022-12-09T08:59:02.102Z,-0.70
2022-12-09T09:01:33.957Z,-0.70
2022-12-09T09:04:03.930Z,-0.60
2022-12-09T09:06:31.270Z,-0.60
2022-12-09T09:08:58.560Z,-0.50
2022-12-09T09:11:27.003Z,-0.50
2022-12-09T09:13:54.589Z,-0.30
2022-12-09T09:16:24.961Z,-0.30
2022-12-09T09:18:52.773Z,-0.30
2022-12-09T09:21:23.343Z,-0.30
2022-12-09T09:23:51.019Z,-0.30
2022-12-09T09:26:23.812Z,-0.30
2022-12-09T09:28:51.745Z,-0.20
2022-12-09T09:31:22.021Z,-0.20
2022-12-09T09:33:49.894Z,-0.20
2022-12-09T09:36:22.821Z,-0.20
2022-12-09T09:38:52.440Z,-0.20
2022-12-09T09:41:42.693Z,-0.20
2022-12-09T09:44:30.432Z,-0.10
2022-12-09T09:46:58.564Z,-0.20
2022-12-09T09:49:31.862Z,-0.10
2022-12-09T09:52:03.811Z,0.00
2022-12-09T09:54:32.462Z,0.10
2022-12-09T09:57:12.779Z,0.20
2022-12-09T09:59:50.177Z,0.30
2022-12-09T10:02:37.552Z,0.30
2022-12-09T10:05:27.265Z,0.30
2022-12-09T10:08:15.408Z,0.40
2022-12-09T10:11:08.112Z,0.40
2022-12-09T10:14:02.858Z,0.50
2022-12-09T10:16:48.239Z,0.50
2022-12-09T10:19:33.666Z,0.50
2022-12-09T10:22:12.099Z,0.60
2022-12-09T10:24:50.957Z,0.60
2022-12-09T10:27:38.165Z,0.60
2022-12-09T10:30:13.077Z,0.70
2022-12-09T10:32:41.337Z,0.70
2022-12-09T10:35:25.819Z,0.70
2022-12-09T10:37:56.418Z,0.70
2022-12-09T10:40:36.204Z,0.70
2022-12-09T10:43:37.537Z,0.70
2022-12-09T10:46:23.106Z,0.80
2022-12-09T10:48:50.526Z,0.80
2022-12-09T10:51:36.645Z,0.80
2022-12-09T10:54:15.446Z,0.90
2022-12-09T10:57:04.993Z,1.00
2022-12-09T10:59:32.889Z,1.00
2022-12-09T11:02:19.021Z,1.10
2022-12-09T11:04:47.286Z,1.10
2022-12-09T11:07:21.174Z,1.10
2022-12-09T11:10:07.051Z,1.00
2022-12-09T11:12:41.301Z,1.00
2022-12-09T11:15:12.600Z,1.10
2022-12-09T11:17:55.853Z,1.10
2022-12-09T11:20:28.346Z,1.10
2022-12-09T11:23:14.294Z,1.10
2022-12-09T11:25:56.531Z,1.00
2022-12-09T11:28:39.360Z,1.10
2022-12-09T11:31:30.416Z,1.10
2022-12-09T11:34:04.455Z,1.20
2022-12-09T11:36:40.613Z,1.20
2022-12-09T11:39:32.857Z,1.20
2022-12-09T11:42:20.100Z,1.20
2022-12-09T11:45:16.299Z,1.20
2022-12-09T11:50:37.412Z,1.20
2022-12-09T11:53:11.530Z,1.20
2022-12-09T11:55:44.238Z,1.30
2022-12-09T11:58:27.173Z,1.30
2022-12-09T12:01:17.687Z,1.30
2022-12-09T12:03:53.834Z,1.40
2022-12-09T12:06:26.331Z,1.30
2022-12-09T12:09:19.327Z,1.30
2022-12-09T12:12:14.495Z,1.40
2022-12-09T12:14:43.395Z,1.40
2022-12-09T12:17:34.590Z,1.50
2022-12-09T12:20:03.560Z,1.50
2022-12-09T12:22:54.685Z,1.50
2022-12-09T12:25:33.739Z,1.50
2022-12-09T12:28:32.907Z,1.50
2022-12-09T12:31:25.204Z,1.50
2022-12-09T12:34:23.416Z,1.50
2022-12-09T12:36:57.405Z,1.50
2022-12-09T12:39:52.567Z,1.60
2022-12-09T12:42:32.304Z,1.60
2022-12-09T12:45:22.176Z,1.60
2022-12-09T12:47:52.773Z,1.60
2022-12-09T12:50:22.401Z,1.60
2022-12-09T12:52:59.589Z,1.60
2022-12-09T12:55:50.940Z,1.50
2022-12-09T12:58:43.070Z,1.50
2022-12-09T13:01:34.781Z,1.50
2022-12-09T13:04:38.583Z,1.50
2022-12-09T13:07:32.824Z,1.40
2022-12-09T13:10:03.767Z,1.50
2022-12-09T13:12:56.801Z,1.50
2022-12-09T13:15:36.198Z,1.60
2022-12-09T13:18:16.170Z,1.60
2022-12-09T13:20:52.393Z,1.60
2022-12-09T13:23:46.325Z,1.60
2022-12-09T13:34:03.759Z,1.60
2022-12-09T13:36:46.305Z,1.60
2022-12-09T13:39:33.885Z,1.60
2022-12-09T13:42:19.459Z,1.60
2022-12-09T13:44:49.358Z,1.70
2022-12-09T13:47:27.840Z,1.60
2022-12-09T13:50:05.915Z,1.60
2022-12-09T13:52:46.515Z,1.50
2022-12-09T13:55:41.518Z,1.60
2022-12-09T13:58:43.332Z,1.60
2022-12-09T14:01:13.217Z,1.50
2022-12-09T14:04:08.672Z,1.50
2022-12-09T14:06:35.447Z,1.60
2022-12-09T14:09:06.767Z,1.50
2022-12-09T14:11:47.595Z,1.50
2022-12-09T14:14:23.558Z,1.50
2022-12-09T14:17:01.698Z,1.50
2022-12-09T14:19:29.935Z,1.40
2022-12-09T14:22:19.693Z,1.40
2022-12-09T14:24:57.198Z,1.30
2022-12-09T14:27:25.357Z,1.30
2022-12-09T14:29:59.505Z,1.20
2022-12-09T14:32:34.249Z,1.20
2022-12-09T14:35:04.208Z,1.20
2022-12-09T14:37:37.096Z,1.10
2022-12-09T14:40:15.729Z,1.10
2022-12-09T14:42:54.882Z,1.10
2022-12-09T14:45:49.816Z,1.10
2022-12-09T14:48:29.287Z,1.00
2022-12-09T14:51:21.382Z,1.00
2022-12-09T14:53:58.906Z,0.90
2022-12-09T14:56:27.332Z,0.90
2022-12-09T14:59:16.260Z,0.80
2022-12-09T15:02:09.195Z,0.80
2022-12-09T15:04:48.288Z,0.80
2022-12-09T15:07:25.820Z,0.80
2022-12-09T15:09:58.503Z,0.80
2022-12-09T15:12:32.644Z,0.70
2022-12-09T15:15:05.791Z,0.70
2022-12-09T15:17:43.455Z,0.90
2022-12-09T15:20:40.978Z,1.00
2022-12-09T15:23:24.037Z,1.10
2022-12-09T15:25:53.752Z,1.20
2022-12-09T15:28:26.350Z,1.20
2022-12-09T15:31:05.905Z,1.30
2022-12-09T15:33:44.801Z,1.30
2022-12-09T15:36:17.539Z,1.30
2022-12-09T15:38:50.452Z,1.20
2022-12-09T15:41:36.618Z,1.20
2022-12-09T15:44:08.221Z,1.30
2022-12-09T15:46:39.942Z,1.30
2022-12-09T15:49:09.183Z,1.20
2022-12-09T15:51:40.573Z,1.20
2022-12-09T15:54:11.304Z,1.10
2022-12-09T15:56:44.544Z,1.10
2022-12-09T15:59:13.428Z,1.10
2022-12-09T16:01:45.964Z,1.10
2022-12-09T16:04:22.230Z,1.10
2022-12-09T16:06:50.109Z,1.00
2022-12-09T16:09:20.650Z,0.90
2022-12-09T16:11:54.838Z,0.90
2022-12-09T16:14:23.483Z,0.80
2022-12-09T16:17:02.096Z,0.80
2022-12-09T16:19:34.794Z,0.80
2022-12-09T16:22:25.200Z,0.80
2022-12-09T16:25:14.478Z,0.80
2022-12-09T16:27:48.647Z,0.80
2022-12-09T16:30:19.438Z,0.80
2022-12-09T16:33:03.145Z,0.80
2022-12-09T16:35:42.764Z,0.70
2022-12-09T16:38:09.440Z,0.70
2022-12-09T16:40:45.378Z,0.80
2022-12-09T16:43:19.002Z,0.80
2022-12-09T16:45:53.242Z,0.80
2022-12-09T16:48:21.696Z,0.80
2022-12-09T16:50:51.178Z,0.80
2022-12-09T16:53:23.319Z,0.80
2022-12-09T16:55:53.000Z,0.80
2022-12-09T16:58:20.473Z,0.90
2022-12-09T17:00:47.963Z,0.90
2022-12-09T17:03:33.730Z,0.90
2022-12-09T17:06:00.474Z,0.90
2022-12-09T17:08:27.667Z,0.90
2022-12-09T17:10:54.537Z,0.90
2022-12-09T17:13:21.240Z,0.90
2022-12-09T17:15:48.253Z,0.90
2022-12-09T17:18:14.983Z,1.00
2022-12-09T17:20:41.732Z,0.90
2022-12-09T17:23:08.676Z,1.00
2022-12-09T17:25:35.558Z,1.00
2022-12-09T17:28:06.176Z,1.00
2022-12-09T17:30:39.041Z,1.00
2022-12-09T17:33:05.780Z,1.10
2022-12-09T17:35:38.272Z,1.10
2022-12-09T17:38:06.112Z,1.00
2022-12-09T17:40:35.058Z,1.00
2022-12-09T17:43:01.778Z,1.00
2022-12-09T17:45:29.454Z,1.00
2022-12-09T17:47:56.208Z,1.00
2022-12-09T17:50:23.102Z,1.00
2022-12-09T17:52:49.881Z,1.00
2022-12-09T17:55:16.771Z,1.00
2022-12-09T17:57:49.892Z,0.90
2022-12-09T18:00:20.872Z,0.90
2022-12-09T18:02:47.642Z,0.90
2022-12-09T18:05:14.510Z,1.00
2022-12-09T18:07:41.296Z,1.00
2022-12-09T18:10:08.651Z,1.00
2022-12-09T18:12:35.609Z,1.00
2022-12-09T18:15:02.345Z,1.10
2022-12-09T18:17:32.426Z,1.10
2022-12-09T18:19:59.244Z,1.10
2022-12-09T18:22:26.022Z,1.00
2022-12-09T18:24:52.711Z,1.00
2022-12-09T18:27:19.582Z,1.00
2022-12-09T18:29:46.328Z,0.90
2022-12-09T18:32:13.087Z,0.90
2022-12-09T18:34:39.773Z,0.90
2022-12-09T18:37:06.528Z,0.90
2022-12-09T18:39:33.265Z,0.80
2022-12-09T18:41:59.973Z,0.80
2022-12-09T18:44:26.757Z,0.70
2022-12-09T18:46:53.553Z,0.70
2022-12-09T18:49:23.805Z,0.70
2022-12-09T18:51:52.763Z,0.70
2022-12-09T18:54:23.381Z,0.60
2022-12-09T18:56:51.458Z,0.60
2022-12-09T18:59:21.767Z,0.50
2022-12-09T19:01:49.163Z,0.50
2022-12-09T19:04:27.999Z,0.40
2022-12-09T19:06:57.706Z,0.40
2022-12-09T19:09:33.247Z,0.40
2022-12-09T19:12:23.102Z,0.40
2022-12-09T19:14:48.767Z,0.50
2022-12-09T19:17:18.799Z,0.40
2022-12-09T19:19:47.359Z,0.40
2022-12-09T19:22:14.613Z,0.30
2022-12-09T19:24:43.290Z,0.20
2022-12-09T19:27:10.478Z,0.20
2022-12-09T19:29:37.321Z,0.20
2022-12-09T19:32:05.582Z,0.10
2022-12-09T19:34:34.300Z,0.10
2022-12-09T19:37:01.500Z,0.10
2022-12-09T19:39:31.342Z,0.00
2022-12-09T19:41:59.064Z,0.00
2022-12-09T19:47:14.247Z,0.00
2022-12-09T19:49:42.555Z,0.00
2022-12-09T19:52:09.337Z,0.00
2022-12-09T19:54:39.361Z,0.00
2022-12-09T19:57:06.549Z,0.10
2022-12-09T19:59:33.396Z,0.20
2022-12-09T20:02:00.425Z,0.20
2022-12-09T20:07:15.324Z,0.40
2022-12-09T20:09:42.237Z,0.40
2022-12-09T20:12:09.154Z,0.50
2022-12-09T20:14:36.053Z,0.50
2022-12-09T20:17:02.918Z,0.50
2022-12-09T20:19:31.393Z,0.50
2022-12-09T20:21:58.255Z,0.60
2022-12-09T20:24:25.213Z,0.60
2022-12-09T20:26:52.248Z,0.60
2022-12-09T20:29:19.218Z,0.60
2022-12-09T20:31:46.165Z,0.50
2022-12-09T20:34:16.162Z,0.50
2022-12-09T20:36:44.511Z,0.50
2022-12-09T20:39:15.563Z,0.60
2022-12-09T20:41:43.690Z,0.60
2022-12-09T20:44:12.018Z,0.70
2022-12-09T20:46:46.401Z,0.70
2022-12-09T20:49:13.177Z,0.60
2022-12-09T20:51:44.481Z,0.70
2022-12-09T20:54:14.157Z,0.70
2022-12-09T20:56:42.356Z,0.60
2022-12-09T20:59:10.751Z,0.60
2022-12-09T21:01:38.670Z,0.60
2022-12-09T21:04:06.899Z,0.60
2022-12-09T21:06:38.649Z,0.60
2022-12-09T21:09:12.768Z,0.60
2022-12-09T21:11:39.741Z,0.60
2022-12-09T21:14:07.638Z,0.60
2022-12-09T21:16:41.026Z,0.60
2022-12-09T21:19:11.619Z,0.50
2022-12-09T21:21:41.151Z,0.60
2022-12-09T21:24:13.567Z,0.60
2022-12-09T21:26:41.378Z,0.60
2022-12-09T21:29:09.838Z,0.50
2022-12-09T21:31:38.519Z,0.50
2022-12-09T21:34:11.824Z,0.40
2022-12-09T21:36:41.413Z,0.50
2022-12-09T21:39:10.228Z,0.40
2022-12-09T21:41:37.561Z,0.40
2022-12-09T21:44:06.854Z,0.40
2022-12-09T21:46:37.350Z,0.40
2022-12-09T21:49:06.747Z,0.40
2022-12-09T21:51:36.542Z,0.50
2022-12-09T21:54:03.866Z,0.50
2022-12-09T21:56:32.878Z,0.50
2022-12-09T21:58:59.848Z,0.50
2022-12-09T22:01:29.575Z,0.50
2022-12-09T22:03:57.562Z,0.50
2022-12-09T22:06:24.590Z,0.50
2022-12-09T22:08:51.775Z,0.50
2022-12-09T22:11:26.856Z,0.50
2022-12-09T22:13:56.500Z,0.50
2022-12-09T22:16:25.567Z,0.50
2022-12-09T22:18:57.060Z,0.50
2022-12-09T22:21:26.967Z,0.60
2022-12-09T22:23:56.615Z,0.60
2022-12-09T22:26:24.415Z,0.60
2022-12-09T22:28:51.660Z,0.60
2022-12-09T22:31:21.561Z,0.60
2022-12-09T22:33:50.176Z,0.60
2022-12-09T22:36:18.203Z,0.60
2022-12-09T22:38:45.347Z,0.60
2022-12-09T22:41:16.094Z,0.60
2022-12-09T22:43:43.446Z,0.60
2022-12-09T22:46:12.963Z,0.70
2022-12-09T22:48:40.496Z,0.70
2022-12-09T22:51:19.104Z,0.60
2022-12-09T22:53:47.385Z,0.60
2022-12-09T22:56:16.372Z,0.50
2022-12-09T22:58:43.141Z,0.50
2022-12-09T23:01:15.615Z,0.50
2022-12-09T23:03:42.693Z,0.60
2022-12-09T23:06:10.337Z,0.60
2022-12-09T23:08:39.119Z,0.70
2022-12-09T23:11:09.153Z,0.70
2022-12-09T23:13:40.616Z,0.70
2022-12-09T23:16:10.178Z,0.70
2022-12-09T23:18:36.912Z,0.70
2022-12-09T23:21:05.573Z,0.70
2022-12-09T23:23:33.514Z,0.80
2022-12-09T23:26:09.171Z,0.70
2022-12-09T23:28:41.394Z,0.70
2022-12-09T23:31:10.987Z,0.70
2022-12-09T23:33:38.894Z,0.70
2022-12-09T23:36:11.418Z,0.70
2022-12-09T23:38:38.152Z,0.70
2022-12-09T23:41:06.107Z,0.70
2022-12-09T23:43:34.302Z,0.60
2022-12-09T23:46:15.467Z,0.60
2022-12-09T23:48:43.533Z,0.50
2022-12-09T23:51:11.643Z,0.50
2022-12-09T23:53:39.328Z,0.50
2022-12-09T23:56:07.211Z,0.50
2022-12-09T23:58:34.068Z,0.50
